Zahedan International Airport
OIZH : now visible

Airfield :











YOU CAN JOIN US ON...

 
LOGIN :

Register | Disclaimer

   EN    FR    IT 

 









Legend :    VFR   Marginal VFR   IFR   Intensive IFR   Very Intensive IFR
Visi :
Ceiling :
>= 8 km
>= 3000ft
5 to 8 km
1000 to 3000 ft
1500m to 5 km
500 to 1000 ft
800 to 1500m
200 to 500 ft
< 800m
< 200 ft
Symbols :   Thunderstorms  Fog  Heavy snow  Heavy precipitations  Wind > 20 kt







- Airport Elevation : 4564 ft
- IATA code : ZAH


OIZH - Zahedan International

CURRENT METAR :
  • 211200Z 26008KT 9999 FEW040 BKN190 23/M04 Q1014 A2995 NOSIG

EXPIRED METARs :
  • 211130Z 22012KT 9999 FEW040 BKN200 23/M04 Q1014 A2994
  • 211100Z 24016KT 9999 FEW040 SCT200 23/M03 Q1014 A2994 NOSIG
  • 211030Z 24018KT 9999 SCT040 23/M03 Q1014 A2995
  • 211000Z 25018KT 9999 SCT040 23/M03 Q1014 A2996 NOSIG
  • 210930Z 23010KT 9999 SCT040 22/M01 Q1014 A2997

TAF TAF OIZH
Valid from the 21 at 12:00 until the 22 at 18:00 UTC


211130Z 2112/2218 23012KT 7000 NSC
TEMPO 2112/2117 24015G25KT
TEMPO 2203/2209 23020G30KT 4000 SA FEW035TCU SCT100
BECMG 2215/2217 22008KT
OIIX FIR / Asia



MET'MAP, your aeronautical weather chart ! - Copyright ORBIFLY December 2007 - Disclaimer

ORBIFLY MET'MAP TEAM :

Programming & Development : Alexandra Zaïnal
Concept & Development : Baudouin d'Aumeries
Co-Development & Prog : Marc-Olivier Méhu
Technical & hardware support : Manuel Goepfert

Contact : metmap@orbifly.com




SOURCES & CREDITS :

   NOAA       Earth
Advisory